Time;durP1;ratioP1;P1;durP2;ratioP2;P2;SDS_P1;SDS_P2;PMS_P1;PMS_P2;Temp;Humidity;BMP_temperature;BMP_pressure;BME280_temperature;BME280_humidity;BME280_pressure;Samples;Min_cycle;Max_cycle;Signal;HPM_P1;HPM_P2
2022/12/02 00:01:16;;;;;;;43.17;23.92;;;6.00;99.90;;;;;;5128719;27;20049;-86
2022/12/02 00:03:43;;;;;;;44.20;24.23;;;5.10;99.90;;;;;;5133568;27;20113;-86
2022/12/02 00:06:27;;;;;;;39.63;23.83;;;5.20;99.90;;;;;;5133201;27;20051;-86
2022/12/02 00:08:55;;;;;;;41.17;23.20;;;5.50;99.90;;;;;;5118443;27;20043;-86
2022/12/02 00:11:26;;;;;;;41.47;23.15;;;4.40;99.90;;;;;;5118974;27;20391;-85
2022/12/02 00:13:54;;;;;;;43.45;24.80;;;4.90;99.90;;;;;;5136003;27;20114;-86
2022/12/02 00:16:22;;;;;;;42.05;22.73;;;5.80;99.90;;;;;;5135749;27;20043;-86
2022/12/02 00:18:50;;;;;;;41.75;22.35;;;5.80;99.90;;;;;;5135647;27;20483;-85
2022/12/02 00:21:16;;;;;;;37.58;20.55;;;5.80;99.90;;;;;;5118612;27;20439;-86
2022/12/02 00:23:42;;;;;;;41.42;22.02;;;;;;;;;;5118372;27;20403;-85
2022/12/02 00:26:08;;;;;;;39.38;22.20;;;4.40;99.90;;;;;;5134645;27;20380;-86
2022/12/02 00:28:34;;;;;;;41.42;22.17;;;;;;;;;;5129916;27;20506;-85
2022/12/02 00:31:00;;;;;;;39.75;21.98;;;4.40;99.90;;;;;;5116227;28;20404;-86
2022/12/02 00:33:26;;;;;;;44.15;22.48;;;5.40;99.90;;;;;;5114358;28;20039;-86
2022/12/02 00:35:51;;;;;;;41.85;22.27;;;6.10;99.90;;;;;;5114198;28;20039;-85
2022/12/02 00:38:17;;;;;;;41.72;22.45;;;5.10;99.90;;;;;;5097247;28;20506;-86
2022/12/02 00:40:43;;;;;;;41.13;21.92;;;4.40;99.90;;;;;;5097436;28;20134;-85
2022/12/02 00:48:39;;;;;;;40.00;22.08;;;4.90;99.90;;;;;;5137416;27;20047;-86
2022/12/02 00:51:05;;;;;;;40.65;22.67;;;4.40;99.90;;;;;;5152003;27;20043;-85
2022/12/02 00:53:31;;;;;;;42.00;21.58;;;4.40;99.90;;;;;;5122487;27;20038;-85
2022/12/02 00:55:56;;;;;;;37.03;20.15;;;5.90;99.90;;;;;;5129518;27;20065;-85
2022/12/02 00:58:23;;;;;;;39.42;20.98;;;;;;;;;;5117844;27;20081;-86
2022/12/02 01:00:48;;;;;;;37.58;20.15;;;4.40;99.90;;;;;;5131454;27;20129;-85
2022/12/02 01:03:14;;;;;;;35.55;20.63;;;5.10;99.90;;;;;;5128491;27;20074;-85
2022/12/02 01:05:40;;;;;;;41.13;20.25;;;5.30;99.90;;;;;;5139537;27;20053;-85
2022/12/02 01:08:06;;;;;;;35.92;20.77;;;4.30;99.90;;;;;;5152361;27;20061;-86
2022/12/02 01:10:32;;;;;;;39.17;20.02;;;5.70;99.90;;;;;;5145898;27;20117;-85
2022/12/02 01:12:58;;;;;;;37.72;19.85;;;6.00;99.90;;;;;;5149475;27;20073;-86
2022/12/02 01:15:24;;;;;;;35.80;18.98;;;4.30;99.90;;;;;;5134344;27;20078;-85
2022/12/02 01:17:50;;;;;;;34.78;18.40;;;;;;;;;;5155109;27;20125;-85
2022/12/02 01:20:16;;;;;;;36.63;17.95;;;4.30;99.90;;;;;;5121126;27;20051;-86
2022/12/02 01:22:42;;;;;;;33.80;18.25;;;4.30;99.90;;;;;;5117861;27;20054;-86
2022/12/02 01:25:07;;;;;;;35.90;17.63;;;5.40;99.90;;;;;;5098771;27;20047;-85
2022/12/02 01:27:33;;;;;;;35.38;18.65;;;4.30;99.90;;;;;;5116394;27;20498;-85
2022/12/02 01:29:59;;;;;;;35.72;17.65;;;5.40;99.90;;;;;;5102772;27;20051;-86
2022/12/02 01:32:25;;;;;;;35.85;18.02;;;5.40;99.90;;;;;;5152905;27;20496;-86
2022/12/02 01:34:50;;;;;;;35.03;18.45;;;4.10;99.90;;;;;;5152834;27;20151;-85
2022/12/02 01:37:16;;;;;;;38.67;18.33;;;4.10;99.90;;;;;;5135262;27;20051;-86
2022/12/02 01:39:42;;;;;;;38.08;19.05;;;4.20;99.90;;;;;;5127137;27;20420;-85
2022/12/02 01:42:09;;;;;;;37.38;18.77;;;4.10;99.90;;;;;;5100047;27;20107;-85
2022/12/02 01:44:35;;;;;;;38.55;19.02;;;5.70;99.90;;;;;;5123590;27;20039;-86
2022/12/02 01:47:01;;;;;;;38.08;19.17;;;4.20;99.90;;;;;;5124590;27;20471;-86
2022/12/02 01:49:27;;;;;;;40.95;19.25;;;5.60;99.90;;;;;;5131674;27;20478;-85
2022/12/02 01:51:53;;;;;;;39.13;19.77;;;5.20;99.90;;;;;;5137018;27;20034;-85
2022/12/02 01:54:19;;;;;;;40.42;19.25;;;4.10;99.90;;;;;;5144274;27;20038;-85
2022/12/02 01:56:45;;;;;;;43.10;20.58;;;4.20;99.90;;;;;;5125094;27;20045;-86
2022/12/02 01:59:12;;;;;;;37.58;19.80;;;4.10;99.90;;;;;;5139714;27;20046;-85
2022/12/02 02:01:39;;;;;;;41.28;20.52;;;;;;;;;;5125091;27;20072;-85
2022/12/02 02:04:05;;;;;;;41.55;20.27;;;4.10;99.90;;;;;;5136576;27;20043;-84
2022/12/02 02:06:36;;;;;;;41.42;20.02;;;5.30;99.90;;;;;;5137629;27;20050;-85
2022/12/02 02:09:02;;;;;;;41.10;20.08;;;5.60;99.90;;;;;;5167096;27;20078;-86
2022/12/02 02:11:28;;;;;;;42.35;21.15;;;4.10;99.90;;;;;;5137485;27;20042;-85
2022/12/02 02:13:55;;;;;;;43.55;20.50;;;4.90;99.90;;;;;;5130410;27;20055;-86
2022/12/02 02:16:21;;;;;;;40.83;21.00;;;;;;;;;;5153918;27;20038;-86
2022/12/02 02:18:47;;;;;;;40.75;20.60;;;4.10;99.90;;;;;;5136543;27;20043;-85
2022/12/02 02:21:21;;;;;;;42.97;20.80;;;4.10;99.90;;;;;;5146905;27;20039;-85
2022/12/02 02:23:47;;;;;;;42.55;21.95;;;4.70;99.90;;;;;;5097965;27;20039;-85
2022/12/02 02:26:13;;;;;;;41.72;20.75;;;5.50;99.90;;;;;;5145337;27;20554;-85
2022/12/02 02:28:38;;;;;;;41.72;21.60;;;4.10;99.90;;;;;;5153607;27;20070;-85
2022/12/02 02:31:04;;;;;;;43.60;22.40;;;4.10;99.90;;;;;;5153670;27;20038;-85
2022/12/02 02:33:32;;;;;;;46.92;22.10;;;4.10;99.90;;;;;;5136133;27;20468;-85
2022/12/02 02:35:59;;;;;;;42.75;21.48;;;4.00;99.90;;;;;;5153806;27;20035;-86
2022/12/02 02:38:26;;;;;;;42.33;21.45;;;4.00;99.90;;;;;;5153499;27;20047;-85
2022/12/02 02:40:54;;;;;;;46.90;22.35;;;4.70;99.90;;;;;;5153702;27;20051;-85
2022/12/02 02:43:22;;;;;;;44.65;20.15;;;4.00;99.90;;;;;;5153200;27;20577;-86
2022/12/02 02:45:49;;;;;;;41.58;21.73;;;5.40;99.90;;;;;;5136392;27;20134;-86
2022/12/02 02:48:16;;;;;;;44.72;21.60;;;4.00;99.90;;;;;;5171337;27;20050;-85
2022/12/02 02:50:44;;;;;;;41.72;21.52;;;4.10;99.90;;;;;;5138590;27;20038;-85
2022/12/02 02:53:10;;;;;;;41.58;20.63;;;;;;;;;;5151782;27;20068;-86
2022/12/02 02:55:36;;;;;;;42.55;21.00;;;4.00;99.90;;;;;;5128267;27;20042;-85
2022/12/02 02:58:14;;;;;;;41.33;21.10;;;5.00;99.90;;;;;;5139336;27;20490;-86
2022/12/02 03:00:44;;;;;;;44.20;20.58;;;4.00;99.90;;;;;;5122971;27;20047;-86
2022/12/02 03:03:11;;;;;;;41.45;21.60;;;5.40;99.90;;;;;;5154263;27;20590;-85
2022/12/02 03:05:38;;;;;;;40.03;20.73;;;5.00;99.90;;;;;;5136067;27;20542;-85
2022/12/02 03:08:07;;;;;;;38.72;20.27;;;3.90;99.90;;;;;;5137867;27;20059;-85
2022/12/02 03:10:33;;;;;;;36.15;20.38;;;4.80;99.90;;;;;;5138019;27;20531;-85
2022/12/02 03:12:59;;;;;;;42.45;20.25;;;4.40;99.90;;;;;;5123066;27;20038;-86
2022/12/02 03:15:27;;;;;;;40.03;20.63;;;4.80;99.90;;;;;;5135432;27;20122;-86
2022/12/02 03:17:54;;;;;;;40.40;20.50;;;5.30;99.90;;;;;;5133137;27;20038;-85
2022/12/02 03:20:22;;;;;;;37.10;19.58;;;3.70;99.90;;;;;;5164180;27;20122;-86
2022/12/02 03:22:48;;;;;;;37.05;19.83;;;;;;;;;;5125276;27;20041;-85
2022/12/02 03:25:13;;;;;;;37.05;20.42;;;3.80;99.90;;;;;;5134204;27;20046;-85
2022/12/02 03:27:39;;;;;;;41.85;20.77;;;5.20;99.90;;;;;;5151774;27;20425;-85
2022/12/02 03:30:06;;;;;;;37.97;20.75;;;5.10;99.90;;;;;;5148444;27;20490;-85
2022/12/02 03:32:32;;;;;;;39.72;19.95;;;3.80;99.90;;;;;;5132725;27;20057;-85
2022/12/02 03:34:58;;;;;;;40.28;19.95;;;4.70;99.90;;;;;;5149463;27;20104;-85
2022/12/02 03:37:23;;;;;;;40.78;20.65;;;4.90;99.90;;;;;;5128982;27;20050;-85
2022/12/02 03:39:50;;;;;;;37.67;19.35;;;5.40;99.90;;;;;;5133398;27;20493;-86
2022/12/02 03:42:16;;;;;;;39.72;20.15;;;;;;;;;;5154901;27;20053;-86
2022/12/02 03:44:42;;;;;;;42.97;20.17;;;3.70;99.90;;;;;;5136397;27;20486;-85
2022/12/02 03:47:08;;;;;;;43.15;20.73;;;5.10;99.90;;;;;;5152906;27;20042;-85
2022/12/02 03:49:34;;;;;;;39.85;19.52;;;5.00;99.90;;;;;;5153122;27;20049;-85
2022/12/02 03:52:00;;;;;;;38.92;19.05;;;3.60;99.90;;;;;;5135791;27;20042;-85
2022/12/02 03:54:26;;;;;;;38.72;19.67;;;3.70;99.90;;;;;;5129351;27;20410;-85
2022/12/02 03:56:52;;;;;;;39.45;20.52;;;;;;;;;;5144480;27;20038;-86
2022/12/02 03:59:26;;;;;;;44.47;20.63;;;3.50;99.90;;;;;;5121341;28;20073;-86
2022/12/02 04:01:52;;;;;;;41.08;19.75;;;5.00;99.90;;;;;;5101188;28;20047;-85
2022/12/02 04:04:18;;;;;;;42.95;20.60;;;4.70;99.90;;;;;;5124261;27;20039;-86
2022/12/02 04:06:44;;;;;;;39.58;19.58;;;5.60;99.90;;;;;;5142390;27;20047;-85
2022/12/02 04:09:09;;;;;;;43.05;19.92;;;3.50;99.90;;;;;;5135289;27;20459;-85
2022/12/02 04:11:35;;;;;;;38.03;19.25;;;3.50;99.90;;;;;;5139293;27;20031;-86
2022/12/02 04:14:01;;;;;;;43.03;20.17;;;;;;;;;;5118523;27;20407;-86
2022/12/02 04:16:27;;;;;;;41.90;19.58;;;;;;;;;;5114653;28;20039;-85
2022/12/02 04:18:53;;;;;;;42.45;20.10;;;;;;;;;;5115123;28;20436;-85
2022/12/02 04:21:20;;;;;;;40.53;19.70;;;;;;;;;;5098126;28;20063;-86
2022/12/02 04:23:46;;;;;;;46.80;20.67;;;3.50;99.90;;;;;;5097789;28;20054;-85
2022/12/02 04:26:12;;;;;;;43.60;20.52;;;3.50;99.90;;;;;;5115460;28;20429;-85
2022/12/02 04:28:37;;;;;;;43.50;20.17;;;4.10;99.90;;;;;;5108044;27;20035;-85
2022/12/02 04:31:03;;;;;;;43.42;21.38;;;2.70;99.90;;;;;;5136735;27;20054;-85
2022/12/02 04:33:29;;;;;;;46.40;22.17;;;3.50;99.90;;;;;;5135067;27;20057;-85
2022/12/02 04:35:55;;;;;;;40.25;20.63;;;;;;;;;;5117815;27;20044;-85
2022/12/02 04:38:21;;;;;;;47.25;23.13;;;;;;;;;;5135403;27;20390;-85
2022/12/02 04:40:47;;;;;;;46.38;22.15;;;3.50;99.90;;;;;;5135545;27;20039;-86
2022/12/02 04:43:12;;;;;;;48.88;22.02;;;5.20;99.90;;;;;;5117947;27;20474;-85
2022/12/02 04:45:38;;;;;;;44.67;21.98;;;5.00;99.90;;;;;;5117668;27;20134;-85
2022/12/02 04:48:04;;;;;;;50.97;22.35;;;3.60;99.90;;;;;;5117534;27;20064;-85
2022/12/02 04:50:29;;;;;;;47.35;22.13;;;3.70;99.90;;;;;;5115481;27;20079;-85
2022/12/02 04:52:55;;;;;;;48.35;22.25;;;5.00;99.90;;;;;;5113288;27;20078;-85
2022/12/02 04:55:21;;;;;;;50.42;22.85;;;4.50;99.90;;;;;;5130409;27;20046;-85
2022/12/02 04:57:46;;;;;;;46.65;22.60;;;5.70;99.90;;;;;;5137517;27;20035;-85
2022/12/02 05:00:13;;;;;;;47.38;21.85;;;4.40;99.90;;;;;;5152923;27;20482;-85
2022/12/02 05:02:38;;;;;;;45.53;22.10;;;3.60;99.90;;;;;;5130883;27;20169;-85
2022/12/02 05:05:04;;;;;;;49.17;22.75;;;3.90;99.90;;;;;;5106434;27;20083;-85
2022/12/02 05:07:30;;;;;;;50.13;22.77;;;2.60;99.90;;;;;;5137116;27;20141;-85
2022/12/02 05:09:56;;;;;;;45.63;22.50;;;3.60;99.90;;;;;;5127124;27;20264;-86
2022/12/02 05:12:23;;;;;;;47.70;22.77;;;5.30;99.90;;;;;;5158056;27;20038;-86
2022/12/02 05:14:49;;;;;;;46.58;22.25;;;5.20;99.90;;;;;;5139597;27;20038;-85
2022/12/02 05:17:15;;;;;;;49.28;22.52;;;3.50;99.90;;;;;;5139236;27;20046;-86
2022/12/02 05:19:41;;;;;;;50.60;22.88;;;4.70;99.90;;;;;;5171918;27;20037;-86
2022/12/02 05:22:06;;;;;;;49.08;23.13;;;4.70;99.90;;;;;;5134102;27;20121;-85
2022/12/02 05:24:32;;;;;;;49.60;21.92;;;4.90;99.90;;;;;;5140012;27;20156;-85
2022/12/02 05:26:58;;;;;;;47.47;23.40;;;5.00;99.90;;;;;;5124031;27;20398;-85
2022/12/02 05:29:23;;;;;;;47.33;22.38;;;5.20;99.90;;;;;;5137599;27;20487;-86
2022/12/02 05:31:49;;;;;;;51.10;23.55;;;5.20;99.90;;;;;;5156642;27;20039;-85
2022/12/02 05:34:15;;;;;;;49.88;22.77;;;3.50;99.90;;;;;;5120287;27;20060;-86
2022/12/02 05:36:41;;;;;;;55.50;24.00;;;4.00;99.90;;;;;;5154210;27;20559;-85
2022/12/02 05:39:07;;;;;;;53.83;23.40;;;;;;;;;;5126633;27;20047;-85
2022/12/02 05:41:32;;;;;;;52.92;22.98;;;3.60;99.90;;;;;;5158564;27;20038;-86
2022/12/02 05:44:12;;;;;;;51.10;23.88;;;3.60;99.90;;;;;;5157860;27;20493;-84
2022/12/02 05:46:38;;;;;;;57.60;24.15;;;3.60;99.90;;;;;;5104940;27;20375;-85
2022/12/02 05:49:10;;;;;;;50.30;23.08;;;5.10;99.90;;;;;;5137116;27;20046;-85
2022/12/02 05:51:36;;;;;;;59.22;25.98;;;4.80;99.90;;;;;;5148043;27;20050;-85
2022/12/02 05:54:05;;;;;;;59.20;26.25;;;4.60;99.90;;;;;;5122112;27;20420;-85
2022/12/02 05:56:31;;;;;;;61.15;24.80;;;3.50;99.90;;;;;;5120216;27;20114;-85
2022/12/02 05:59:04;;;;;;;49.80;22.60;;;3.60;99.90;;;;;;5136882;27;20447;-85
2022/12/02 06:01:30;;;;;;;52.60;24.10;;;4.60;99.90;;;;;;5155129;27;20045;-84
2022/12/02 06:03:57;;;;;;;58.50;25.35;;;4.80;99.90;;;;;;5137188;27;20042;-85
2022/12/02 06:06:27;;;;;;;57.15;24.65;;;3.70;99.90;;;;;;5133104;27;20137;-85
2022/12/02 06:08:55;;;;;;;59.50;23.50;;;5.20;99.90;;;;;;5175988;27;20057;-86
2022/12/02 06:11:37;;;;;;;53.95;23.77;;;4.80;99.90;;;;;;5142227;27;20041;-86
2022/12/02 06:14:17;;;;;;;54.90;23.90;;;5.20;99.90;;;;;;5121599;27;20102;-85
2022/12/02 06:16:52;;;;;;;59.55;26.08;;;4.60;99.90;;;;;;5145628;27;20037;-86
2022/12/02 06:19:26;;;;;;;59.63;25.42;;;3.80;99.90;;;;;;5118801;27;20039;-86
2022/12/02 06:21:53;;;;;;;58.17;24.88;;;3.30;99.90;;;;;;5126941;27;20054;-85
2022/12/02 06:24:26;;;;;;;57.00;23.95;;;4.70;99.90;;;;;;5134199;27;20050;-86
2022/12/02 06:26:54;;;;;;;51.05;24.48;;;4.70;99.90;;;;;;5115453;27;20378;-86
2022/12/02 06:29:20;;;;;;;53.60;23.92;;;3.60;99.90;;;;;;5123993;27;20034;-86
2022/12/02 06:31:46;;;;;;;56.63;25.10;;;4.30;99.90;;;;;;5129671;27;20042;-85
2022/12/02 06:34:23;;;;;;;55.35;24.02;;;4.30;99.90;;;;;;5119026;27;20060;-86
2022/12/02 06:36:49;;;;;;;57.70;24.35;;;2.80;99.90;;;;;;5131410;27;20077;-85
2022/12/02 06:39:20;;;;;;;61.80;25.45;;;5.40;99.90;;;;;;5153077;27;20069;-86
2022/12/02 06:41:47;;;;;;;59.83;24.10;;;3.60;99.90;;;;;;5136156;27;20053;-86
2022/12/02 06:47:32;;;;;;;59.90;25.85;;;4.40;99.90;;;;;;5154636;27;20050;-86
2022/12/02 06:50:24;;;;;;;59.30;25.13;;;3.70;99.90;;;;;;5105639;27;20125;-85
2022/12/02 06:52:51;;;;;;;58.38;25.70;;;3.70;99.90;;;;;;5119629;27;20046;-85
2022/12/02 06:55:30;;;;;;;55.47;24.17;;;3.70;99.90;;;;;;5132382;27;20091;-86
2022/12/02 06:58:04;;;;;;;59.13;25.52;;;3.80;99.90;;;;;;5131785;27;20053;-86
2022/12/02 07:00:32;;;;;;;58.90;25.83;;;4.90;99.90;;;;;;5142574;27;20066;-85
2022/12/02 07:02:57;;;;;;;58.38;24.48;;;3.70;99.90;;;;;;5115971;27;20043;-86
2022/12/02 07:05:23;;;;;;;54.60;24.00;;;3.80;99.90;;;;;;5124269;27;20129;-86
2022/12/02 07:07:50;;;;;;;54.65;25.35;;;5.40;99.90;;;;;;5120212;27;20450;-86
2022/12/02 07:10:23;;;;;;;57.53;24.88;;;3.70;99.90;;;;;;5125763;27;20061;-86
2022/12/02 07:12:49;;;;;;;56.13;24.02;;;3.80;99.90;;;;;;5162113;27;20474;-86
2022/12/02 07:15:41;;;;;;;58.40;25.10;;;5.20;99.90;;;;;;5134640;27;20047;-86
2022/12/02 07:18:17;;;;;;;57.03;24.60;;;3.80;99.90;;;;;;5149862;27;20457;-86
2022/12/02 07:20:45;;;;;;;55.80;24.33;;;3.80;99.90;;;;;;5137165;27;20030;-86
2022/12/02 07:23:23;;;;;;;53.10;23.27;;;4.70;99.90;;;;;;5149576;27;20086;-86
2022/12/02 07:25:54;;;;;;;56.58;24.00;;;3.90;99.90;;;;;;5113859;27;20045;-86
2022/12/02 07:28:23;;;;;;;50.20;20.95;;;;;;;;;;5145332;27;20106;-87
2022/12/02 07:31:01;;;;;;;53.95;23.23;;;4.00;99.90;;;;;;5138796;27;20090;-87
2022/12/02 07:33:27;;;;;;;52.35;22.80;;;5.60;99.90;;;;;;5155966;27;20084;-86
2022/12/02 07:35:53;;;;;;;51.70;23.38;;;;;;;;;;5138545;27;20117;-85
2022/12/02 07:38:19;;;;;;;50.70;23.67;;;3.90;99.90;;;;;;5138754;27;20054;-87
2022/12/02 07:40:45;;;;;;;52.50;23.80;;;;;;;;;;5139522;27;20038;-86
2022/12/02 07:43:11;;;;;;;53.22;21.83;;;3.90;99.90;;;;;;5139364;27;20402;-87
2022/12/02 07:45:37;;;;;;;52.83;23.63;;;4.80;99.90;;;;;;5142900;27;20041;-86
2022/12/02 07:48:03;;;;;;;52.60;24.92;;;4.30;99.90;;;;;;5140785;27;20443;-86
2022/12/02 07:50:29;;;;;;;59.28;24.90;;;3.80;99.90;;;;;;5128258;27;20380;-87
2022/12/02 07:52:54;;;;;;;51.90;24.33;;;3.90;99.90;;;;;;5118287;27;20043;-86
2022/12/02 07:55:20;;;;;;;57.42;26.65;;;3.90;99.90;;;;;;5132726;27;20043;-87
2022/12/02 07:57:46;;;;;;;55.85;25.60;;;5.30;99.90;;;;;;5158699;27;20508;-86
2022/12/02 08:00:13;;;;;;;58.80;26.73;;;5.20;99.90;;;;;;5142784;27;20042;-86
2022/12/02 08:02:39;;;;;;;55.72;25.50;;;3.80;99.90;;;;;;5151449;27;20431;-86
2022/12/02 08:05:05;;;;;;;51.63;24.40;;;5.40;99.90;;;;;;5122529;27;20049;-86
2022/12/02 08:07:31;;;;;;;51.85;23.10;;;3.80;99.90;;;;;;5138623;27;20058;-86
2022/12/02 08:09:57;;;;;;;51.65;23.13;;;;;;;;;;5135781;27;20504;-86
2022/12/02 08:12:23;;;;;;;50.88;22.13;;;3.90;99.90;;;;;;5142419;27;20039;-86
2022/12/02 08:14:49;;;;;;;47.45;22.65;;;5.00;99.90;;;;;;5160452;27;20030;-86
2022/12/02 08:17:15;;;;;;;44.90;20.45;;;3.90;99.90;;;;;;5159794;27;20486;-86
2022/12/02 08:19:41;;;;;;;46.95;21.10;;;;;;;;;;5159996;27;20114;-87
2022/12/02 08:22:07;;;;;;;49.63;20.88;;;3.80;99.90;;;;;;5166796;27;20034;-86
2022/12/02 08:24:33;;;;;;;42.92;20.30;;;4.80;99.90;;;;;;5142177;27;20049;-86
2022/12/02 08:26:58;;;;;;;43.58;21.42;;;4.90;99.90;;;;;;5145465;27;20088;-87
2022/12/02 08:29:24;;;;;;;43.17;19.52;;;4.80;99.90;;;;;;5138883;27;20047;-86
2022/12/02 08:31:50;;;;;;;43.88;20.38;;;5.10;99.90;;;;;;5137960;27;20041;-86
2022/12/02 08:34:15;;;;;;;47.97;21.08;;;4.50;99.90;;;;;;5123350;27;20043;-86
2022/12/02 08:36:41;;;;;;;44.13;20.60;;;4.70;99.90;;;;;;5130705;27;20035;-86
2022/12/02 08:39:07;;;;;;;45.25;18.25;;;5.30;99.90;;;;;;5138436;27;20052;-86
2022/12/02 08:41:34;;;;;;;47.70;20.42;;;5.30;99.90;;;;;;5157339;27;20039;-87
2022/12/02 08:44:00;;;;;;;45.72;20.90;;;3.60;99.90;;;;;;5138681;27;20091;-86
2022/12/02 08:46:26;;;;;;;46.45;20.35;;;4.90;99.90;;;;;;5138324;27;20042;-87
2022/12/02 08:48:53;;;;;;;44.72;21.45;;;3.50;99.90;;;;;;5138296;27;20149;-86
2022/12/02 08:51:19;;;;;;;47.00;22.90;;;3.60;99.90;;;;;;5155819;27;20113;-87
2022/12/02 08:53:45;;;;;;;47.63;22.00;;;3.40;99.90;;;;;;5143796;27;20054;-86
2022/12/02 08:56:11;;;;;;;44.95;20.92;;;3.40;99.90;;;;;;5136385;27;20038;-87
2022/12/02 08:58:37;;;;;;;45.40;21.90;;;4.50;99.90;;;;;;5119201;27;20047;-86
2022/12/02 09:01:03;;;;;;;50.08;22.33;;;4.20;99.90;;;;;;5118613;27;20176;-87
2022/12/02 09:03:28;;;;;;;45.97;22.02;;;3.40;99.90;;;;;;5100601;27;20039;-86
2022/12/02 09:05:54;;;;;;;49.67;21.35;;;4.50;99.90;;;;;;5099775;27;20058;-87
2022/12/02 09:08:20;;;;;;;46.30;20.38;;;;;;;;;;5140604;27;20047;-87
2022/12/02 09:10:46;;;;;;;46.83;21.38;;;3.30;99.90;;;;;;5132731;27;20186;-87
2022/12/02 09:13:12;;;;;;;46.88;21.10;;;4.30;99.90;;;;;;5120916;27;20550;-87
2022/12/02 09:15:39;;;;;;;48.25;21.90;;;4.80;99.90;;;;;;5122104;27;20031;-87
2022/12/02 09:18:04;;;;;;;46.33;21.40;;;3.30;99.90;;;;;;5137636;27;20042;-86
2022/12/02 09:20:30;;;;;;;48.90;21.23;;;4.50;99.90;;;;;;5120810;27;20047;-87
2022/12/02 09:22:56;;;;;;;48.97;21.10;;;5.20;99.90;;;;;;5124615;27;20077;-82
2022/12/02 09:25:22;;;;;;;49.70;21.38;;;5.10;99.90;;;;;;5140330;27;20054;-84
2022/12/02 09:27:48;;;;;;;49.42;20.45;;;3.40;99.90;;;;;;5137857;27;20038;-84
2022/12/02 09:30:13;;;;;;;50.83;22.67;;;3.30;99.90;;;;;;5138054;27;20066;-84
2022/12/02 09:32:39;;;;;;;53.90;22.80;;;2.00;99.90;;;;;;5155853;27;20125;-84
2022/12/02 09:35:06;;;;;;;56.05;23.60;;;3.40;99.90;;;;;;5135991;27;20153;-84
2022/12/02 09:37:32;;;;;;;57.35;24.15;;;3.30;99.90;;;;;;5154774;27;20101;-85
2022/12/02 09:39:58;;;;;;;53.92;24.02;;;4.40;99.90;;;;;;5137312;27;20333;-85
2022/12/02 09:42:24;;;;;;;59.60;25.23;;;4.30;99.90;;;;;;5138533;27;20095;-83
2022/12/02 09:44:50;;;;;;;55.60;23.33;;;;;;;;;;5154305;27;20039;-84
2022/12/02 09:47:18;;;;;;;56.95;25.13;;;3.40;99.90;;;;;;5140042;27;20052;-84
2022/12/02 09:49:44;;;;;;;50.85;23.80;;;4.70;99.90;;;;;;5152768;27;20035;-85
2022/12/02 09:52:18;;;;;;;53.97;24.25;;;4.20;99.90;;;;;;5099083;27;20134;-83
2022/12/02 09:54:45;;;;;;;50.20;22.88;;;4.70;99.90;;;;;;5099216;27;20098;-84
2022/12/02 09:57:16;;;;;;;50.75;23.63;;;3.70;99.90;;;;;;5099302;27;20039;-85
2022/12/02 09:59:43;;;;;;;47.85;23.25;;;3.50;99.90;;;;;;5110196;27;20039;-87
2022/12/02 10:02:34;;;;;;;49.70;22.52;;;5.20;99.90;;;;;;5124320;27;20042;-85
2022/12/02 10:05:06;;;;;;;43.58;21.55;;;3.60;99.90;;;;;;5128142;27;20042;-85
2022/12/02 10:07:32;;;;;;;44.83;21.70;;;3.70;99.90;;;;;;5114499;27;20051;-85
2022/12/02 10:10:01;;;;;;;47.78;22.55;;;5.00;99.90;;;;;;5097717;27;20110;-85
2022/12/02 10:12:27;;;;;;;45.35;21.48;;;;;;;;;;5121873;27;20073;-86
2022/12/02 10:14:54;;;;;;;42.17;21.27;;;3.70;99.90;;;;;;5122116;27;20042;-85
2022/12/02 10:17:20;;;;;;;43.70;20.70;;;3.70;99.90;;;;;;5138983;27;20042;-85
2022/12/02 10:19:48;;;;;;;43.00;21.88;;;5.30;99.90;;;;;;5140245;27;20186;-86
2022/12/02 10:22:20;;;;;;;44.72;21.58;;;4.20;99.90;;;;;;5142401;27;20042;-86
2022/12/02 10:24:47;;;;;;;42.78;21.38;;;3.60;99.90;;;;;;5139953;27;20474;-85
2022/12/02 10:27:35;;;;;;;46.65;22.38;;;3.80;99.90;;;;;;5126946;27;20410;-86
2022/12/02 10:30:25;;;;;;;44.03;22.45;;;3.80;99.90;;;;;;5125209;27;20471;-81
2022/12/02 10:32:59;;;;;;;46.83;22.52;;;3.80;99.90;;;;;;5156807;27;20408;-85
2022/12/02 10:35:26;;;;;;;47.03;22.92;;;3.80;99.90;;;;;;5166193;27;20371;-86
2022/12/02 10:37:52;;;;;;;44.47;22.48;;;3.80;99.90;;;;;;5133012;27;20120;-86
2022/12/02 10:40:21;;;;;;;42.40;21.83;;;4.90;99.90;;;;;;5109496;27;20047;-87
2022/12/02 10:42:47;;;;;;;44.72;22.77;;;3.70;99.90;;;;;;5133081;27;20042;-86
2022/12/02 10:45:21;;;;;;;41.45;22.50;;;4.80;99.90;;;;;;5133621;27;20224;-87
2022/12/02 10:47:49;;;;;;;41.75;21.45;;;3.70;99.90;;;;;;5148219;27;20038;-87
2022/12/02 10:50:20;;;;;;;43.83;21.85;;;4.70;99.90;;;;;;5151467;27;20126;-84
2022/12/02 10:52:50;;;;;;;40.67;20.73;;;3.70;99.90;;;;;;5145023;27;20053;-87
2022/12/02 10:55:18;;;;;;;36.75;19.38;;;5.10;99.90;;;;;;5112320;27;20131;-83
2022/12/02 10:57:45;;;;;;;43.65;21.45;;;3.70;99.90;;;;;;5155240;27;20038;-86
2022/12/02 11:00:19;;;;;;;42.72;20.77;;;5.50;99.90;;;;;;5118865;27;20091;-86
2022/12/02 11:02:56;;;;;;;40.78;20.42;;;3.40;99.90;;;;;;5136203;27;20121;-86
2022/12/02 11:05:30;;;;;;;41.33;21.25;;;3.60;99.90;;;;;;5117030;27;20099;-86
2022/12/02 11:08:15;;;;;;;41.50;21.35;;;2.80;99.90;;;;;;5135161;27;20083;-86
2022/12/02 11:10:43;;;;;;;44.45;21.75;;;5.00;99.90;;;;;;5135776;27;20039;-85
2022/12/02 11:13:11;;;;;;;45.58;23.20;;;3.70;99.90;;;;;;5135341;27;20557;-86
2022/12/02 11:15:43;;;;;;;44.83;22.70;;;3.70;99.90;;;;;;5119919;27;20038;-85
2022/12/02 11:18:24;;;;;;;46.72;23.45;;;3.70;99.90;;;;;;5134391;27;20049;-86
2022/12/02 11:20:54;;;;;;;43.47;23.05;;;5.10;99.90;;;;;;5132091;27;20047;-86
2022/12/02 11:23:23;;;;;;;48.03;24.45;;;5.10;99.90;;;;;;5138907;27;20106;-87
2022/12/02 11:25:59;;;;;;;45.72;23.23;;;3.80;99.90;;;;;;5137191;27;20042;-86
2022/12/02 11:28:28;;;;;;;47.00;25.65;;;3.80;99.90;;;;;;5153930;27;20069;-86
2022/12/02 11:31:09;;;;;;;46.58;24.33;;;3.00;99.90;;;;;;5139383;27;20034;-87
2022/12/02 11:33:47;;;;;;;46.55;25.52;;;3.80;99.90;;;;;;5155764;27;20046;-86
2022/12/02 11:36:16;;;;;;;47.35;25.58;;;3.80;99.90;;;;;;5138451;27;20046;-88
2022/12/02 11:38:51;;;;;;;50.10;24.50;;;3.80;99.90;;;;;;5156642;27;20042;-88
2022/12/02 11:41:28;;;;;;;46.45;26.20;;;3.90;99.90;;;;;;5156901;27;20037;-88
2022/12/02 11:44:08;;;;;;;47.95;26.55;;;4.00;99.90;;;;;;5126997;27;20133;-88
2022/12/02 11:46:44;;;;;;;49.50;25.98;;;5.60;99.90;;;;;;5135186;27;20045;-87
2022/12/02 11:49:30;;;;;;;48.95;26.10;;;4.10;99.90;;;;;;5135407;27;20220;-88
2022/12/02 11:52:08;;;;;;;48.25;26.20;;;4.00;99.90;;;;;;5117821;27;20092;-88
2022/12/02 11:54:48;;;;;;;47.97;25.80;;;5.10;99.90;;;;;;5117895;27;20043;-88
2022/12/02 11:57:19;;;;;;;46.92;25.48;;;3.90;99.90;;;;;;5119387;27;20153;-88
2022/12/02 11:59:46;;;;;;;46.63;26.63;;;4.00;99.90;;;;;;5135469;27;20047;-87
2022/12/02 12:02:13;;;;;;;48.60;27.50;;;4.30;99.90;;;;;;5135275;27;20039;-87
2022/12/02 12:04:39;;;;;;;47.35;26.27;;;5.30;99.90;;;;;;5135047;27;20085;-87
2022/12/02 12:07:06;;;;;;;45.95;24.45;;;4.70;99.90;;;;;;5117934;27;20051;-87
2022/12/02 12:09:32;;;;;;;41.28;24.20;;;;;;;;;;5118007;27;20129;-87
2022/12/02 12:12:06;;;;;;;44.30;25.08;;;3.90;99.90;;;;;;5123278;27;20050;-87
2022/12/02 12:14:32;;;;;;;41.15;23.05;;;3.90;99.90;;;;;;5139439;27;20074;-87
2022/12/02 12:17:28;;;;;;;43.70;23.70;;;4.00;99.90;;;;;;5138800;27;20095;-87
2022/12/02 12:19:54;;;;;;;45.10;24.13;;;3.90;99.90;;;;;;5138954;27;20128;-88
2022/12/02 12:22:25;;;;;;;43.67;24.83;;;5.40;99.90;;;;;;5156837;27;20118;-88
2022/12/02 12:24:51;;;;;;;42.53;23.13;;;3.80;99.90;;;;;;5144794;27;20042;-88
2022/12/02 12:27:35;;;;;;;42.80;22.75;;;5.00;99.90;;;;;;5130920;27;20382;-87
2022/12/02 12:30:01;;;;;;;40.33;23.00;;;4.10;99.90;;;;;;5139297;27;20046;-86
2022/12/02 12:32:27;;;;;;;41.03;23.50;;;5.80;99.90;;;;;;5138806;27;20046;-87
2022/12/02 12:34:53;;;;;;;41.40;23.13;;;4.70;99.90;;;;;;5142655;27;20041;-87
2022/12/02 12:41:00;;;;;;;35.15;20.02;;;;;;;;;;5119841;22;20084;-89
2022/12/02 12:43:27;;;;;;;38.30;21.33;;;3.90;99.90;;;;;;5004883;28;20525;-88
2022/12/02 12:45:54;;;;;;;37.00;21.55;;;5.70;99.90;;;;;;5012614;28;20355;-87
2022/12/02 12:48:20;;;;;;;36.92;19.80;;;2.60;99.90;;;;;;5013781;28;20175;-89
2022/12/02 12:50:47;;;;;;;38.88;21.63;;;5.40;99.90;;;;;;5025159;28;20128;-89
2022/12/02 12:53:15;;;;;;;40.65;23.10;;;3.80;99.90;;;;;;5013654;28;20508;-88
2022/12/02 12:55:41;;;;;;;39.47;22.58;;;3.80;99.90;;;;;;5032393;28;20042;-86
2022/12/02 12:58:09;;;;;;;42.15;22.60;;;5.00;99.90;;;;;;5030793;28;20056;-86
2022/12/02 13:00:41;;;;;;;41.90;22.42;;;5.20;99.90;;;;;;5004745;28;20121;-87
